createdAt,value
2019-04-28T00:02:02.874Z,1.70
2019-04-28T00:04:31.757Z,1.80
2019-04-28T00:07:01.811Z,1.90
2019-04-28T00:09:31.422Z,1.60
2019-04-28T00:12:01.708Z,2.40
2019-04-28T00:14:31.804Z,1.67
2019-04-28T00:17:02.151Z,1.77
2019-04-28T00:19:31.129Z,1.60
2019-04-28T00:22:02.184Z,1.80
2019-04-28T00:24:35.786Z,1.67
2019-04-28T00:27:07.019Z,1.87
2019-04-28T00:29:40.285Z,1.53
2019-04-28T00:32:07.270Z,1.87
2019-04-28T00:34:36.160Z,2.00
2019-04-28T00:37:06.693Z,2.13
2019-04-28T00:39:35.581Z,1.63
2019-04-28T00:42:05.285Z,1.63
2019-04-28T00:44:34.180Z,2.00
2019-04-28T00:47:03.178Z,2.00
2019-04-28T00:49:47.431Z,2.17
2019-04-28T00:52:18.163Z,3.47
2019-04-28T00:54:48.947Z,2.00
2019-04-28T00:57:21.079Z,2.00
2019-04-28T00:59:57.700Z,2.00
2019-04-28T01:02:30.992Z,2.67
2019-04-28T01:05:01.529Z,1.90
2019-04-28T01:07:32.958Z,2.57
2019-04-28T01:10:03.536Z,2.27
2019-04-28T01:12:32.530Z,3.80
2019-04-28T01:15:04.523Z,3.10
2019-04-28T01:17:39.840Z,3.27
2019-04-28T01:20:11.902Z,3.37
2019-04-28T01:22:40.893Z,2.83
2019-04-28T01:25:10.759Z,2.37
2019-04-28T01:27:41.841Z,2.13
2019-04-28T01:30:13.092Z,2.13
2019-04-28T01:32:43.622Z,1.63
2019-04-28T01:35:12.513Z,1.80
2019-04-28T01:37:41.508Z,1.50
2019-04-28T01:40:11.976Z,0.97
2019-04-28T01:42:41.300Z,0.83
2019-04-28T01:45:12.463Z,1.20
2019-04-28T01:47:41.473Z,1.03
2019-04-28T01:50:10.465Z,1.00
2019-04-28T01:52:40.789Z,0.90
2019-04-28T01:55:10.131Z,1.33
2019-04-28T01:57:40.149Z,0.90
2019-04-28T02:00:21.883Z,1.20
2019-04-28T02:02:43.623Z,1.17
2019-04-28T02:05:14.008Z,1.60
2019-04-28T02:07:43.965Z,1.10
2019-04-28T02:10:12.975Z,1.03
2019-04-28T02:12:43.459Z,1.27
2019-04-28T02:15:30.154Z,1.00
2019-04-28T02:18:01.629Z,1.20
2019-04-28T02:20:30.654Z,1.50
2019-04-28T02:23:00.757Z,1.30
2019-04-28T02:25:29.804Z,1.33
2019-04-28T02:27:59.611Z,1.60
2019-04-28T02:30:42.235Z,1.93
2019-04-28T02:33:01.443Z,1.90
2019-04-28T02:35:31.719Z,1.37
2019-04-28T02:38:00.046Z,2.33
2019-04-28T02:40:30.558Z,1.80
2019-04-28T02:43:01.276Z,2.03
2019-04-28T02:45:31.628Z,1.77
2019-04-28T02:48:01.886Z,1.93
2019-04-28T02:50:33.092Z,1.80
2019-04-28T02:53:15.710Z,1.80
2019-04-28T02:55:44.213Z,2.30
2019-04-28T02:58:13.452Z,2.03
2019-04-28T03:01:00.357Z,2.03
2019-04-28T03:03:12.943Z,2.67
2019-04-28T03:05:41.450Z,2.00
2019-04-28T03:08:11.180Z,2.53
2019-04-28T03:10:40.991Z,2.43
2019-04-28T03:13:12.825Z,2.07
2019-04-28T03:15:41.459Z,2.60
2019-04-28T03:18:11.467Z,2.60
2019-04-28T03:20:41.815Z,2.50
2019-04-28T03:23:12.368Z,2.73
2019-04-28T03:25:45.655Z,2.67
2019-04-28T03:28:15.688Z,2.67
2019-04-28T03:31:06.380Z,2.87
2019-04-28T03:33:34.323Z,3.07
2019-04-28T03:36:07.094Z,2.70
2019-04-28T03:38:32.406Z,2.80
2019-04-28T03:41:01.180Z,2.60
2019-04-28T03:43:30.580Z,2.87
2019-04-28T03:46:16.275Z,2.63
2019-04-28T03:48:44.766Z,2.70
2019-04-28T03:51:13.552Z,2.43
2019-04-28T03:53:42.948Z,2.77
2019-04-28T03:56:11.513Z,2.83
2019-04-28T03:58:40.873Z,3.90
2019-04-28T04:01:10.825Z,3.20
2019-04-28T04:03:41.728Z,2.60
2019-04-28T04:06:10.483Z,2.73
2019-04-28T04:08:40.848Z,2.37
2019-04-28T04:11:31.170Z,2.30
2019-04-28T04:14:01.888Z,1.97
2019-04-28T04:16:41.467Z,3.30
2019-04-28T04:19:14.345Z,2.93
2019-04-28T04:21:42.832Z,2.40
2019-04-28T04:24:11.316Z,2.63
2019-04-28T04:26:40.956Z,2.00
2019-04-28T04:29:10.498Z,3.10
2019-04-28T04:31:41.146Z,3.10
2019-04-28T04:34:10.724Z,2.30
2019-04-28T04:36:41.802Z,2.30
2019-04-28T04:39:10.777Z,2.23
2019-04-28T04:41:40.908Z,2.33
2019-04-28T04:44:11.200Z,2.10
2019-04-28T04:46:41.470Z,2.43
2019-04-28T04:49:10.671Z,2.60
2019-04-28T04:51:43.315Z,2.60
2019-04-28T04:54:10.857Z,2.17
2019-04-28T04:56:40.240Z,2.80
2019-04-28T04:59:10.212Z,3.10
2019-04-28T05:01:50.316Z,2.87
2019-04-28T05:04:33.499Z,2.80
2019-04-28T05:07:02.015Z,3.00
2019-04-28T05:09:31.177Z,3.20
2019-04-28T05:12:00.478Z,3.37
2019-04-28T05:14:29.883Z,4.53
2019-04-28T05:17:00.652Z,2.57
2019-04-28T05:19:29.833Z,3.00
2019-04-28T05:22:00.016Z,3.10
2019-04-28T05:24:33.945Z,2.43
2019-04-28T05:27:02.425Z,3.27
2019-04-28T05:29:30.892Z,2.97
2019-04-28T05:32:03.137Z,2.60
2019-04-28T05:34:29.762Z,3.10
2019-04-28T05:37:00.553Z,2.50
2019-04-28T05:39:29.799Z,2.57
2019-04-28T05:42:00.656Z,3.20
2019-04-28T05:44:29.934Z,2.27
2019-04-28T05:46:59.536Z,2.40
2019-04-28T05:49:45.785Z,2.70
2019-04-28T05:52:32.189Z,2.20
2019-04-28T05:55:17.364Z,2.30
2019-04-28T05:57:47.378Z,2.07
2019-04-28T06:00:34.328Z,2.40
2019-04-28T06:03:04.410Z,2.47
2019-04-28T06:05:32.891Z,2.60
2019-04-28T06:08:05.469Z,2.57
2019-04-28T06:10:33.917Z,3.30
2019-04-28T06:13:02.368Z,2.80
2019-04-28T06:15:30.848Z,2.20
2019-04-28T06:18:00.113Z,2.57
2019-04-28T06:20:30.339Z,2.67
2019-04-28T06:22:59.942Z,3.10
2019-04-28T06:25:28.830Z,2.90
2019-04-28T06:27:57.824Z,2.47
2019-04-28T06:30:26.818Z,2.47
2019-04-28T06:33:07.109Z,2.33
2019-04-28T06:35:26.236Z,2.50
2019-04-28T06:37:55.126Z,2.83
2019-04-28T06:40:24.022Z,2.60
2019-04-28T06:42:52.908Z,2.10
2019-04-28T06:45:21.799Z,2.43
2019-04-28T06:47:50.689Z,1.90
2019-04-28T06:50:19.580Z,2.03
2019-04-28T06:52:48.574Z,1.83
2019-04-28T06:55:17.115Z,2.10
2019-04-28T06:57:45.559Z,1.67
2019-04-28T07:00:14.851Z,2.10
2019-04-28T07:02:43.418Z,1.80
2019-04-28T07:05:11.887Z,1.90
2019-04-28T07:07:40.796Z,1.70
2019-04-28T07:10:10.505Z,1.70
2019-04-28T07:12:39.391Z,1.40
2019-04-28T07:15:08.998Z,1.20
2019-04-28T07:17:37.889Z,1.07
2019-04-28T07:20:24.905Z,1.50
2019-04-28T07:22:53.797Z,1.30
2019-04-28T07:25:22.790Z,1.70
2019-04-28T07:27:51.679Z,1.20
2019-04-28T07:30:20.570Z,1.50
2019-04-28T07:32:49.462Z,1.00
2019-04-28T07:35:18.351Z,1.40
2019-04-28T07:37:47.242Z,0.90
2019-04-28T07:40:16.133Z,1.20
2019-04-28T07:42:45.127Z,0.90
2019-04-28T07:45:14.031Z,1.10
2019-04-28T07:47:42.907Z,1.20
2019-04-28T07:50:12.621Z,1.30
2019-04-28T07:52:43.146Z,1.30
2019-04-28T07:55:12.832Z,1.00
2019-04-28T07:57:41.749Z,0.83
2019-04-28T08:00:13.330Z,1.13
2019-04-28T08:02:42.181Z,0.90
2019-04-28T08:05:11.916Z,0.90
2019-04-28T08:07:40.894Z,0.70
2019-04-28T08:10:09.902Z,0.70
2019-04-28T08:12:39.189Z,0.80
2019-04-28T08:15:09.105Z,1.20
2019-04-28T08:17:37.996Z,1.00
2019-04-28T08:20:08.602Z,0.97
2019-04-28T08:22:37.517Z,1.10
2019-04-28T08:25:09.782Z,1.10
2019-04-28T08:27:38.678Z,1.10
2019-04-28T08:30:09.360Z,1.10
2019-04-28T08:32:52.025Z,1.03
2019-04-28T08:35:21.426Z,1.20
2019-04-28T08:37:50.400Z,1.00
2019-04-28T08:40:19.715Z,0.97
2019-04-28T08:42:48.608Z,0.90
2019-04-28T08:45:17.447Z,1.00
2019-04-28T08:47:46.297Z,1.00
2019-04-28T08:50:18.287Z,1.03
2019-04-28T08:52:47.319Z,1.00
2019-04-28T08:55:16.168Z,1.10
2019-04-28T08:57:45.047Z,1.40
2019-04-28T09:00:14.694Z,1.33
2019-04-28T09:02:43.641Z,1.00
2019-04-28T09:05:12.619Z,0.93
2019-04-28T09:07:41.504Z,1.33
2019-04-28T09:10:10.840Z,1.10
2019-04-28T09:12:39.679Z,1.00
2019-04-28T09:15:08.673Z,1.07
2019-04-28T09:17:37.519Z,1.00
2019-04-28T09:20:07.388Z,1.07
2019-04-28T09:22:36.287Z,1.13
2019-04-28T09:25:06.935Z,1.57
2019-04-28T09:27:35.877Z,1.50
2019-04-28T09:30:06.071Z,1.30
2019-04-28T09:32:34.927Z,1.17
2019-04-28T09:35:05.279Z,1.17
2019-04-28T09:37:34.204Z,1.30
2019-04-28T09:40:13.597Z,0.90
2019-04-28T09:42:52.855Z,1.03
2019-04-28T09:45:23.323Z,1.00
2019-04-28T09:47:52.116Z,1.10
2019-04-28T09:50:21.005Z,1.10
2019-04-28T09:52:49.864Z,0.90
2019-04-28T09:55:18.815Z,0.97
2019-04-28T09:57:47.794Z,1.40
2019-04-28T10:00:16.643Z,1.27
2019-04-28T10:02:45.527Z,1.00
2019-04-28T10:05:14.437Z,0.80
2019-04-28T10:07:43.290Z,0.83
2019-04-28T10:10:12.417Z,0.90
2019-04-28T10:12:41.333Z,1.10
2019-04-28T10:15:10.409Z,1.13
2019-04-28T10:17:39.261Z,1.40
2019-04-28T10:20:08.543Z,1.43
2019-04-28T10:22:37.399Z,1.37
2019-04-28T10:25:08.225Z,1.40
2019-04-28T10:27:37.122Z,1.20
2019-04-28T10:30:09.155Z,1.40
2019-04-28T10:32:38.010Z,0.90
2019-04-28T10:35:08.397Z,1.40
2019-04-28T10:37:37.500Z,1.33
2019-04-28T10:40:15.817Z,1.20
2019-04-28T10:42:44.664Z,1.20
2019-04-28T10:45:17.925Z,1.20
2019-04-28T10:47:46.838Z,1.20
2019-04-28T10:50:15.880Z,1.23
2019-04-28T10:52:44.715Z,1.30
2019-04-28T10:55:13.705Z,0.97
2019-04-28T10:57:42.656Z,1.20
2019-04-28T11:00:12.700Z,1.20
2019-04-28T11:02:43.020Z,1.03
2019-04-28T11:05:14.124Z,1.40
2019-04-28T11:07:43.126Z,1.40
2019-04-28T11:10:17.368Z,1.30
2019-04-28T11:12:46.203Z,1.10
2019-04-28T11:15:29.124Z,0.90
2019-04-28T11:17:58.088Z,1.07
2019-04-28T11:20:26.933Z,1.37
2019-04-28T11:22:55.812Z,1.93
2019-04-28T11:25:24.651Z,1.93
2019-04-28T11:27:55.565Z,1.70
2019-04-28T11:30:24.683Z,1.57
2019-04-28T11:33:00.827Z,1.13
2019-04-28T11:35:31.495Z,1.43
2019-04-28T11:38:00.336Z,1.23
2019-04-28T11:40:29.286Z,1.20
2019-04-28T11:42:58.327Z,1.50
2019-04-28T11:45:27.489Z,1.17
2019-04-28T11:47:56.321Z,1.40
2019-04-28T11:50:25.208Z,1.33
2019-04-28T11:52:54.097Z,1.33
2019-04-28T11:55:22.926Z,1.63
2019-04-28T11:57:51.816Z,1.20
2019-04-28T12:00:36.224Z,1.40
2019-04-28T12:03:05.301Z,1.67
2019-04-28T12:05:41.769Z,1.40
2019-04-28T12:08:10.724Z,0.97
2019-04-28T12:10:44.256Z,1.30
2019-04-28T12:13:14.763Z,1.30
2019-04-28T12:15:45.216Z,1.00
2019-04-28T12:18:31.967Z,1.37
2019-04-28T12:21:00.848Z,1.30
2019-04-28T12:23:29.684Z,1.77
2019-04-28T12:25:58.592Z,1.30
2019-04-28T12:28:27.480Z,0.87
2019-04-28T12:30:56.341Z,1.50
2019-04-28T12:33:25.212Z,0.90
2019-04-28T12:35:54.092Z,1.20
2019-04-28T12:38:23.132Z,1.70
2019-04-28T12:40:51.976Z,1.67
2019-04-28T12:43:20.857Z,1.50
2019-04-28T12:45:49.705Z,1.30
2019-04-28T12:48:18.552Z,2.17
2019-04-28T12:50:54.167Z,1.50
2019-04-28T12:53:23.679Z,1.67
2019-04-28T12:55:52.619Z,1.10
2019-04-28T12:58:21.487Z,1.60
2019-04-28T13:01:08.303Z,1.20
2019-04-28T13:03:44.400Z,1.53
2019-04-28T13:06:21.071Z,1.13
2019-04-28T13:08:49.997Z,1.30
2019-04-28T13:11:18.864Z,1.53
2019-04-28T13:13:47.813Z,1.57
2019-04-28T13:16:16.750Z,1.40
2019-04-28T13:18:45.590Z,1.43
2019-04-28T13:21:14.464Z,1.03
2019-04-28T13:23:43.304Z,1.67
2019-04-28T13:26:12.398Z,2.00
2019-04-28T13:28:41.237Z,1.63
2019-04-28T13:31:10.085Z,1.50
2019-04-28T13:33:53.789Z,1.17
2019-04-28T13:36:15.155Z,1.40
2019-04-28T13:38:40.115Z,1.13
2019-04-28T13:41:08.976Z,1.60
2019-04-28T13:43:37.896Z,1.13
2019-04-28T13:46:06.717Z,1.20
2019-04-28T13:48:35.655Z,1.30
2019-04-28T13:51:04.708Z,1.40
2019-04-28T13:53:33.616Z,1.70
2019-04-28T13:56:03.207Z,1.30
2019-04-28T13:58:33.837Z,1.50
2019-04-28T14:01:16.300Z,1.50
2019-04-28T14:04:04.658Z,1.53
2019-04-28T14:06:35.066Z,1.43
2019-04-28T14:09:05.380Z,1.30
2019-04-28T14:11:34.272Z,1.57
2019-04-28T14:14:03.114Z,1.60
2019-04-28T14:16:31.943Z,1.33
2019-04-28T14:19:00.810Z,1.60
2019-04-28T14:21:29.670Z,1.20
2019-04-28T14:23:58.515Z,1.60
2019-04-28T14:26:27.396Z,1.60
2019-04-28T14:28:56.248Z,1.53
2019-04-28T14:31:25.077Z,1.37
2019-04-28T14:33:54.114Z,1.40
2019-04-28T14:36:23.024Z,1.27
2019-04-28T14:38:51.831Z,1.43
2019-04-28T14:41:20.719Z,1.10
2019-04-28T14:43:49.571Z,1.43
2019-04-28T14:46:18.393Z,1.40
2019-04-28T14:48:47.327Z,1.17
2019-04-28T14:51:16.303Z,1.50
2019-04-28T14:53:45.211Z,1.20
2019-04-28T14:56:14.185Z,1.33
2019-04-28T14:58:43.048Z,1.60
2019-04-28T15:01:29.873Z,1.30
2019-04-28T15:04:00.317Z,1.30
2019-04-28T15:06:30.725Z,1.23
2019-04-28T15:09:04.217Z,1.33
2019-04-28T15:11:34.727Z,1.13
2019-04-28T15:14:03.665Z,1.30
2019-04-28T15:16:32.699Z,1.70
2019-04-28T15:19:01.503Z,1.50
2019-04-28T15:21:30.384Z,1.20
2019-04-28T15:23:59.229Z,1.23
2019-04-28T15:26:28.163Z,1.53
2019-04-28T15:28:57.052Z,1.50
2019-04-28T15:31:25.991Z,1.40
2019-04-28T15:33:54.901Z,1.43
2019-04-28T15:36:23.824Z,1.50
2019-04-28T15:38:52.665Z,1.20
2019-04-28T15:41:22.236Z,1.70
2019-04-28T15:43:51.392Z,1.40
2019-04-28T15:46:20.236Z,1.70
2019-04-28T15:48:49.169Z,1.00
2019-04-28T15:51:18.244Z,1.60
2019-04-28T15:53:48.600Z,1.50
2019-04-28T15:56:21.513Z,1.53
2019-04-28T15:58:50.398Z,1.57
2019-04-28T16:01:19.244Z,1.30
2019-04-28T16:03:48.088Z,1.73
2019-04-28T16:06:16.973Z,1.20
2019-04-28T16:08:45.838Z,1.10
2019-04-28T16:11:14.851Z,1.20
2019-04-28T16:13:43.726Z,1.47
2019-04-28T16:16:12.561Z,1.30
2019-04-28T16:18:41.505Z,1.40
2019-04-28T16:21:10.510Z,1.43
2019-04-28T16:23:39.398Z,1.20
2019-04-28T16:26:08.239Z,1.20
2019-04-28T16:28:37.099Z,1.00
2019-04-28T16:31:06.376Z,0.93
2019-04-28T16:33:35.321Z,1.10
2019-04-28T16:36:04.259Z,1.23
2019-04-28T16:38:33.188Z,1.07
2019-04-28T16:41:03.859Z,1.50
2019-04-28T16:43:33.483Z,1.10
2019-04-28T16:46:02.677Z,1.20
2019-04-28T16:48:31.657Z,0.97
2019-04-28T16:51:01.039Z,0.97
2019-04-28T16:53:29.970Z,0.90
2019-04-28T16:56:00.417Z,1.00
2019-04-28T16:58:36.593Z,1.10
2019-04-28T17:01:23.382Z,1.00
2019-04-28T17:03:52.221Z,0.80
2019-04-28T17:06:21.164Z,1.00
2019-04-28T17:08:50.157Z,1.10
2019-04-28T17:11:18.996Z,0.93
2019-04-28T17:13:47.847Z,0.97
2019-04-28T17:16:16.720Z,1.20
2019-04-28T17:18:45.567Z,1.20
2019-04-28T17:21:14.400Z,1.13
2019-04-28T17:23:43.279Z,0.90
2019-04-28T17:26:12.210Z,0.80
2019-04-28T17:28:41.064Z,1.10
2019-04-28T17:31:10.044Z,1.73
2019-04-28T17:33:38.952Z,1.40
2019-04-28T17:36:07.793Z,1.20
2019-04-28T17:38:36.665Z,1.07
2019-04-28T17:41:05.602Z,0.90
2019-04-28T17:43:34.578Z,1.13
2019-04-28T17:46:03.655Z,0.80
2019-04-28T17:48:36.552Z,0.80
2019-04-28T17:51:05.395Z,1.10
2019-04-28T17:53:34.275Z,0.90
2019-04-28T17:56:03.118Z,0.90
2019-04-28T17:58:31.994Z,0.90
2019-04-28T18:01:08.383Z,1.00
2019-04-28T18:03:55.167Z,1.07
2019-04-28T18:06:25.620Z,1.63
2019-04-28T18:08:54.489Z,1.10
2019-04-28T18:11:23.324Z,1.20
2019-04-28T18:13:52.205Z,1.00
2019-04-28T18:16:38.916Z,1.40
2019-04-28T18:19:09.513Z,1.07
2019-04-28T18:21:38.455Z,0.80
2019-04-28T18:24:07.288Z,1.10
2019-04-28T18:26:36.163Z,1.10
2019-04-28T18:29:05.125Z,1.37
2019-04-28T18:31:44.835Z,0.90
2019-04-28T18:34:15.260Z,1.50
2019-04-28T18:36:45.687Z,1.07
2019-04-28T18:39:19.039Z,0.93
2019-04-28T18:41:49.548Z,1.30
2019-04-28T18:44:22.233Z,1.37
2019-04-28T18:46:51.224Z,1.33
2019-04-28T18:49:20.056Z,0.93
2019-04-28T18:51:48.902Z,1.37
2019-04-28T18:54:17.776Z,0.90
2019-04-28T18:56:46.811Z,1.40
2019-04-28T18:59:15.673Z,0.87
2019-04-28T19:01:46.419Z,1.50
2019-04-28T19:04:15.319Z,1.50
2019-04-28T19:06:44.171Z,1.43
2019-04-28T19:09:14.616Z,1.43
2019-04-28T19:11:47.584Z,1.90
2019-04-28T19:14:20.674Z,2.20
2019-04-28T19:17:07.151Z,1.80
2019-04-28T19:19:37.200Z,1.50
2019-04-28T19:22:05.743Z,1.60
2019-04-28T19:24:34.183Z,0.90
2019-04-28T19:27:02.660Z,1.30
2019-04-28T19:29:31.099Z,1.00
2019-04-28T19:31:59.544Z,1.13
2019-04-28T19:34:28.037Z,1.00
2019-04-28T19:36:56.529Z,0.80
2019-04-28T19:39:24.969Z,1.03
2019-04-28T19:41:53.450Z,0.87
2019-04-28T19:44:21.882Z,1.10
2019-04-28T19:46:50.336Z,1.20
2019-04-28T19:49:18.820Z,1.33
2019-04-28T19:51:47.263Z,1.10
2019-04-28T19:54:17.200Z,1.47
2019-04-28T19:56:47.256Z,1.60
2019-04-28T19:59:17.418Z,1.40
2019-04-28T20:01:45.902Z,1.67
2019-04-28T20:04:14.395Z,1.63
2019-04-28T20:06:42.847Z,1.50
2019-04-28T20:09:11.286Z,0.90
2019-04-28T20:11:39.777Z,1.23
2019-04-28T20:14:08.217Z,1.30
2019-04-28T20:16:36.668Z,1.10
2019-04-28T20:19:06.359Z,1.30
2019-04-28T20:21:34.803Z,1.30
2019-04-28T20:24:03.250Z,1.17
2019-04-28T20:26:31.751Z,0.90
2019-04-28T20:29:00.207Z,1.00
2019-04-28T20:31:28.696Z,1.20
2019-04-28T20:33:57.143Z,1.60
2019-04-28T20:36:33.208Z,1.57
2019-04-28T20:39:03.971Z,1.53
2019-04-28T20:41:32.448Z,1.50
2019-04-28T20:44:00.943Z,1.10
2019-04-28T20:46:29.404Z,1.40
2019-04-28T20:48:57.856Z,1.70
2019-04-28T20:51:26.463Z,1.00
2019-04-28T20:53:55.515Z,1.60
2019-04-28T20:56:23.959Z,1.10
2019-04-28T20:58:52.410Z,1.20
2019-04-28T21:01:20.902Z,1.10
2019-04-28T21:03:49.523Z,1.20
2019-04-28T21:06:17.978Z,0.90
2019-04-28T21:08:46.428Z,1.13
2019-04-28T21:11:14.941Z,1.20
2019-04-28T21:13:43.422Z,1.43
2019-04-28T21:16:11.830Z,1.20
2019-04-28T21:18:40.317Z,1.00
2019-04-28T21:21:08.767Z,1.43
2019-04-28T21:23:37.244Z,1.10
2019-04-28T21:26:05.720Z,1.10
2019-04-28T21:28:34.162Z,1.20
2019-04-28T21:31:02.616Z,1.00
2019-04-28T21:33:31.168Z,1.00
2019-04-28T21:35:59.670Z,0.90
2019-04-28T21:38:28.155Z,0.90
2019-04-28T21:40:57.815Z,1.03
2019-04-28T21:43:27.960Z,0.90
2019-04-28T21:45:58.016Z,1.20
2019-04-28T21:48:34.136Z,1.30
2019-04-28T21:51:02.721Z,1.10
2019-04-28T21:53:31.184Z,1.17
2019-04-28T21:55:59.633Z,1.07
2019-04-28T21:58:33.376Z,1.20
2019-04-28T22:00:58.796Z,1.33
2019-04-28T22:03:27.387Z,1.20
2019-04-28T22:05:55.867Z,1.17
2019-04-28T22:08:24.343Z,1.10
2019-04-28T22:10:52.825Z,1.10
2019-04-28T22:13:21.304Z,1.10
2019-04-28T22:15:49.718Z,1.10
2019-04-28T22:18:18.170Z,1.13
2019-04-28T22:20:46.746Z,2.10
2019-04-28T22:23:18.679Z,1.23
2019-04-28T22:25:46.986Z,1.27
2019-04-28T22:28:15.471Z,1.10
2019-04-28T22:30:43.927Z,1.30
2019-04-28T22:33:12.381Z,1.00
2019-04-28T22:35:40.911Z,1.43
2019-04-28T22:38:09.346Z,1.40
2019-04-28T22:40:37.897Z,1.30
2019-04-28T22:43:06.300Z,1.50
2019-04-28T22:45:34.834Z,1.70
2019-04-28T22:48:04.851Z,1.63
2019-04-28T22:50:34.736Z,1.60
2019-04-28T22:53:03.220Z,1.60
2019-04-28T22:55:33.248Z,1.97
2019-04-28T22:58:03.383Z,1.70
2019-04-28T23:00:43.218Z,1.70
2019-04-28T23:03:25.138Z,2.27
2019-04-28T23:05:53.628Z,1.80
2019-04-28T23:08:22.243Z,1.70
2019-04-28T23:10:50.732Z,1.93
2019-04-28T23:13:19.229Z,1.67
2019-04-28T23:15:48.473Z,1.50
2019-04-28T23:18:17.135Z,1.93
2019-04-28T23:20:47.191Z,1.47
2019-04-28T23:23:15.637Z,1.80
2019-04-28T23:25:44.086Z,1.53
2019-04-28T23:28:12.702Z,1.50
2019-04-28T23:30:46.495Z,1.80
2019-04-28T23:33:14.938Z,1.80
2019-04-28T23:35:43.432Z,1.87
2019-04-28T23:38:11.895Z,1.83
2019-04-28T23:40:41.912Z,1.80
2019-04-28T23:43:12.087Z,1.80
2019-04-28T23:45:40.535Z,2.20
2019-04-28T23:48:08.983Z,2.30
2019-04-28T23:50:41.854Z,2.03
2019-04-28T23:53:11.950Z,1.70
2019-04-28T23:55:40.434Z,2.30
2019-04-28T23:58:08.944Z,1.63
